createdAt,value
2018-07-09T00:01:13.573Z,23.60
2018-07-09T00:03:41.863Z,23.60
2018-07-09T00:06:10.162Z,23.50
2018-07-09T00:08:38.368Z,23.50
2018-07-09T00:11:08.420Z,23.50
2018-07-09T00:13:37.726Z,23.40
2018-07-09T00:16:05.990Z,23.40
2018-07-09T00:18:34.216Z,23.40
2018-07-09T00:21:02.467Z,23.30
2018-07-09T00:23:30.796Z,23.30
2018-07-09T00:25:59.049Z,23.30
2018-07-09T00:28:27.500Z,23.20
2018-07-09T00:30:55.744Z,23.20
2018-07-09T00:33:24.083Z,23.20
2018-07-09T00:35:52.378Z,23.10
2018-07-09T00:38:21.053Z,23.10
2018-07-09T00:40:49.943Z,23.10
2018-07-09T00:43:18.202Z,23.10
2018-07-09T00:45:46.769Z,23.00
2018-07-09T00:48:15.066Z,23.00
2018-07-09T00:50:43.363Z,23.00
2018-07-09T00:53:11.633Z,22.90
2018-07-09T00:55:39.908Z,22.90
2018-07-09T00:58:08.198Z,22.90
2018-07-09T01:00:36.519Z,22.90
2018-07-09T01:03:04.869Z,22.80
2018-07-09T01:05:33.185Z,22.80
2018-07-09T01:08:01.534Z,22.80
2018-07-09T01:10:29.809Z,22.80
2018-07-09T01:12:58.103Z,22.70
2018-07-09T01:15:26.425Z,22.70
2018-07-09T01:17:54.694Z,22.70
2018-07-09T01:20:23.070Z,22.60
2018-07-09T01:22:51.278Z,22.60
2018-07-09T01:25:19.565Z,22.60
2018-07-09T01:27:47.837Z,22.60
2018-07-09T01:30:16.694Z,22.50
2018-07-09T01:32:44.982Z,22.50
2018-07-09T01:35:14.003Z,22.50
2018-07-09T01:37:42.769Z,22.50
2018-07-09T01:40:11.379Z,22.40
2018-07-09T01:42:39.655Z,22.40
2018-07-09T01:45:07.954Z,22.40
2018-07-09T01:47:36.226Z,22.30
2018-07-09T01:50:04.523Z,22.30
2018-07-09T01:52:32.794Z,22.30
2018-07-09T01:55:01.575Z,22.30
2018-07-09T01:57:29.913Z,22.20
2018-07-09T01:59:58.155Z,22.20
2018-07-09T02:02:26.435Z,22.20
2018-07-09T02:04:54.753Z,22.20
2018-07-09T02:07:23.007Z,22.10
2018-07-09T02:09:51.572Z,22.10
2018-07-09T02:12:19.866Z,22.10
2018-07-09T02:14:48.146Z,22.00
2018-07-09T02:17:16.430Z,22.00
2018-07-09T02:19:44.749Z,22.00
2018-07-09T02:22:13.050Z,22.00
2018-07-09T02:24:41.335Z,22.00
2018-07-09T02:29:37.617Z,21.90
2018-07-09T02:32:05.958Z,21.90
2018-07-09T02:34:35.138Z,21.90
2018-07-09T02:37:03.447Z,21.80
2018-07-09T02:39:31.727Z,21.80
2018-07-09T02:41:59.995Z,21.80
2018-07-09T02:44:28.298Z,21.70
2018-07-09T02:49:24.951Z,21.70
2018-07-09T02:51:53.570Z,21.70
2018-07-09T02:54:22.088Z,21.70
2018-07-09T02:56:50.451Z,21.70
2018-07-09T02:59:18.786Z,21.60
2018-07-09T03:01:47.115Z,21.60
2018-07-09T03:04:15.477Z,21.60
2018-07-09T03:06:43.757Z,21.50
2018-07-09T03:09:12.050Z,21.50
2018-07-09T03:11:40.330Z,21.50
2018-07-09T03:14:08.615Z,21.50
2018-07-09T03:16:37.118Z,21.40
2018-07-09T03:19:05.677Z,21.40
2018-07-09T03:21:34.000Z,21.40
2018-07-09T03:24:02.186Z,21.40
2018-07-09T03:26:30.465Z,21.30
2018-07-09T03:28:58.727Z,21.30
2018-07-09T03:31:26.974Z,21.30
2018-07-09T03:33:55.261Z,21.30
2018-07-09T03:36:23.517Z,21.20
2018-07-09T03:38:51.767Z,21.20
2018-07-09T03:41:20.075Z,21.20
2018-07-09T03:43:48.554Z,21.20
2018-07-09T03:46:16.829Z,21.20
2018-07-09T03:48:45.095Z,21.20
2018-07-09T03:51:13.643Z,21.10
2018-07-09T03:53:41.943Z,21.10
2018-07-09T03:56:10.213Z,21.10
2018-07-09T03:58:38.530Z,21.10
2018-07-09T04:01:06.814Z,21.10
2018-07-09T04:03:35.086Z,21.10
2018-07-09T04:06:03.357Z,21.00
2018-07-09T04:08:31.630Z,21.00
2018-07-09T04:10:59.907Z,21.00
2018-07-09T04:13:28.726Z,21.00
2018-07-09T04:15:56.997Z,21.00
2018-07-09T04:18:25.785Z,20.90
2018-07-09T04:20:55.845Z,20.90
2018-07-09T04:23:24.111Z,20.90
2018-07-09T04:25:52.681Z,20.90
2018-07-09T04:28:21.367Z,20.90
2018-07-09T04:30:49.953Z,20.80
2018-07-09T04:33:18.338Z,20.80
2018-07-09T04:35:46.602Z,20.80
2018-07-09T04:40:43.182Z,20.80
2018-07-09T04:43:11.509Z,20.80
2018-07-09T04:45:39.757Z,20.80
2018-07-09T04:48:08.860Z,20.80
2018-07-09T04:50:37.131Z,20.80
2018-07-09T04:53:05.555Z,20.80
2018-07-09T04:55:33.808Z,20.80
2018-07-09T04:58:02.095Z,20.90
2018-07-09T05:00:30.371Z,21.00
2018-07-09T05:02:58.697Z,21.00
2018-07-09T05:05:26.969Z,21.00
2018-07-09T05:07:55.261Z,21.10
2018-07-09T05:10:23.531Z,21.10
2018-07-09T05:12:52.803Z,21.00
2018-07-09T05:15:21.141Z,21.00
2018-07-09T05:20:17.406Z,21.00
2018-07-09T05:22:45.810Z,21.00
2018-07-09T05:25:14.114Z,21.00
2018-07-09T05:27:42.370Z,21.00
2018-07-09T05:30:10.678Z,21.00
2018-07-09T05:32:38.943Z,21.00
2018-07-09T05:35:07.335Z,21.00
2018-07-09T05:37:36.094Z,21.00
2018-07-09T05:40:04.595Z,21.00
2018-07-09T05:42:32.798Z,21.00
2018-07-09T05:47:29.135Z,21.00
2018-07-09T05:49:57.426Z,21.10
2018-07-09T05:52:25.737Z,21.10
2018-07-09T05:54:54.030Z,21.10
2018-07-09T05:57:22.320Z,21.20
2018-07-09T05:59:50.653Z,21.20
2018-07-09T06:02:19.957Z,21.10
2018-07-09T06:04:48.370Z,21.10
2018-07-09T06:07:16.809Z,21.00
2018-07-09T06:09:45.275Z,21.10
2018-07-09T06:12:13.534Z,21.10
2018-07-09T06:14:42.374Z,21.10
2018-07-09T06:17:12.728Z,21.10
2018-07-09T06:19:41.449Z,21.10
2018-07-09T06:22:09.667Z,21.20
2018-07-09T06:24:38.009Z,21.20
2018-07-09T06:27:07.150Z,21.20
2018-07-09T06:29:35.455Z,21.20
2018-07-09T06:32:03.810Z,21.10
2018-07-09T06:34:32.074Z,21.10
2018-07-09T06:37:00.391Z,21.10
2018-07-09T06:39:28.635Z,21.10
2018-07-09T06:41:56.901Z,21.10
2018-07-09T06:44:25.173Z,21.10
2018-07-09T06:46:53.431Z,21.10
2018-07-09T06:49:21.786Z,21.00
2018-07-09T06:51:50.076Z,21.10
2018-07-09T06:54:18.379Z,21.10
2018-07-09T06:56:46.643Z,21.20
2018-07-09T06:59:14.938Z,21.20
2018-07-09T07:01:43.194Z,21.30
2018-07-09T07:04:11.498Z,21.30
2018-07-09T07:06:39.813Z,21.30
2018-07-09T07:09:08.183Z,21.30
2018-07-09T07:11:36.607Z,21.30
2018-07-09T07:14:04.923Z,21.30
2018-07-09T07:16:33.594Z,21.40
2018-07-09T07:19:02.082Z,21.30
2018-07-09T07:21:30.423Z,21.40
2018-07-09T07:23:58.742Z,21.40
2018-07-09T07:28:55.082Z,21.30
2018-07-09T07:31:23.353Z,21.40
2018-07-09T07:33:53.296Z,21.40
2018-07-09T07:36:21.589Z,21.50
2018-07-09T07:38:49.874Z,21.50
2018-07-09T07:41:18.212Z,21.50
2018-07-09T07:43:46.525Z,21.50
2018-07-09T07:46:14.782Z,21.50
2018-07-09T07:48:43.057Z,21.60
2018-07-09T07:51:11.348Z,21.60
2018-07-09T07:53:39.657Z,21.60
2018-07-09T07:56:07.926Z,21.60
2018-07-09T08:01:04.247Z,21.70
2018-07-09T08:03:32.579Z,21.70
2018-07-09T08:06:00.833Z,21.80
2018-07-09T08:08:29.122Z,21.80
2018-07-09T08:10:57.454Z,21.80
2018-07-09T08:13:28.797Z,21.90
2018-07-09T08:15:55.102Z,21.90
2018-07-09T08:18:23.360Z,21.90
2018-07-09T08:20:51.642Z,22.00
2018-07-09T08:23:19.887Z,22.00
2018-07-09T08:25:48.226Z,22.00
2018-07-09T08:28:16.505Z,22.10
2018-07-09T08:33:12.865Z,22.10
2018-07-09T08:35:41.164Z,22.10
2018-07-09T08:38:09.447Z,22.20
2018-07-09T08:40:44.392Z,22.20
2018-07-09T08:43:12.752Z,22.30
2018-07-09T08:45:41.086Z,22.30
2018-07-09T08:48:09.375Z,22.30
2018-07-09T08:50:37.690Z,22.40
2018-07-09T08:53:06.323Z,22.50
2018-07-09T08:55:35.078Z,22.50
2018-07-09T09:00:31.434Z,22.60
2018-07-09T09:02:59.698Z,22.60
2018-07-09T09:05:28.338Z,22.60
2018-07-09T09:07:56.583Z,22.70
2018-07-09T09:10:24.970Z,22.80
2018-07-09T09:12:53.212Z,22.80
2018-07-09T09:15:21.518Z,22.80
2018-07-09T09:17:50.482Z,22.80
2018-07-09T09:20:18.767Z,22.80
2018-07-09T09:22:47.081Z,22.90
2018-07-09T09:25:15.474Z,23.00
2018-07-09T09:27:43.748Z,23.00
2018-07-09T09:30:12.023Z,23.00
2018-07-09T09:32:40.440Z,23.10
2018-07-09T09:37:36.759Z,23.10
2018-07-09T09:40:05.150Z,23.20
2018-07-09T09:42:33.558Z,23.30
2018-07-09T09:45:01.895Z,23.30
2018-07-09T09:47:30.183Z,23.40
2018-07-09T09:49:58.450Z,23.40
2018-07-09T09:52:26.814Z,23.40
2018-07-09T09:54:55.119Z,23.50
2018-07-09T09:57:23.378Z,23.50
2018-07-09T09:59:51.699Z,23.60
2018-07-09T10:02:19.958Z,23.70
2018-07-09T10:04:48.265Z,23.70
2018-07-09T10:07:16.524Z,23.80
2018-07-09T10:09:44.818Z,23.80
2018-07-09T10:12:13.099Z,23.90
2018-07-09T10:14:41.400Z,23.90
2018-07-09T10:17:09.665Z,23.90
2018-07-09T10:19:37.957Z,24.00
2018-07-09T10:22:06.301Z,24.10
2018-07-09T10:24:34.562Z,24.10
2018-07-09T10:27:02.838Z,24.10
2018-07-09T10:29:31.090Z,24.20
2018-07-09T10:31:59.390Z,24.30
2018-07-09T10:34:27.666Z,24.30
2018-07-09T10:39:23.981Z,24.40
2018-07-09T10:41:52.267Z,24.40
2018-07-09T10:44:20.553Z,24.50
2018-07-09T10:46:48.825Z,24.50
2018-07-09T10:49:17.102Z,24.60
2018-07-09T10:51:45.392Z,24.60
2018-07-09T10:54:13.710Z,24.70
2018-07-09T10:56:42.003Z,24.70
2018-07-09T10:59:10.270Z,24.70
2018-07-09T11:01:38.574Z,24.80
2018-07-09T11:04:06.914Z,24.90
2018-07-09T11:06:35.179Z,24.90
2018-07-09T11:09:04.241Z,25.00
2018-07-09T11:11:32.507Z,25.10
2018-07-09T11:14:00.794Z,25.10
2018-07-09T11:16:29.065Z,25.20
2018-07-09T11:18:57.362Z,25.20
2018-07-09T11:21:25.662Z,25.30
2018-07-09T11:23:53.942Z,25.30
2018-07-09T11:26:22.312Z,25.30
2018-07-09T11:28:50.733Z,25.30
2018-07-09T11:31:19.067Z,25.30
2018-07-09T11:33:47.358Z,25.40
2018-07-09T11:36:15.617Z,25.40
2018-07-09T11:38:43.896Z,25.50
2018-07-09T11:41:12.159Z,25.50
2018-07-09T11:43:40.438Z,25.50
2018-07-09T11:46:08.739Z,25.60
2018-07-09T11:48:37.005Z,25.70
2018-07-09T11:51:05.266Z,25.70
2018-07-09T11:53:34.158Z,25.70
2018-07-09T11:56:02.458Z,25.70
2018-07-09T11:58:30.771Z,25.80
2018-07-09T12:00:59.053Z,25.80
2018-07-09T12:03:27.349Z,25.80
2018-07-09T12:05:55.683Z,25.90
2018-07-09T12:08:23.978Z,25.80
2018-07-09T12:10:52.253Z,25.80
2018-07-09T12:13:20.526Z,25.80
2018-07-09T12:15:49.189Z,25.80
2018-07-09T12:18:17.450Z,25.90
2018-07-09T12:20:45.761Z,25.90
2018-07-09T12:23:14.093Z,25.90
2018-07-09T12:25:42.404Z,25.80
2018-07-09T12:28:10.799Z,25.80
2018-07-09T12:30:39.121Z,25.80
2018-07-09T12:33:07.394Z,25.80
2018-07-09T12:35:35.666Z,25.80
2018-07-09T12:38:03.975Z,25.80
2018-07-09T12:40:32.270Z,25.90
2018-07-09T12:45:28.619Z,26.00
2018-07-09T12:47:56.891Z,26.00
2018-07-09T12:52:53.213Z,26.00
2018-07-09T12:55:21.513Z,26.10
2018-07-09T12:57:49.778Z,26.10
2018-07-09T13:00:18.083Z,26.10
2018-07-09T13:02:46.370Z,26.20
2018-07-09T13:07:36.127Z,26.20
2018-07-09T13:12:32.761Z,26.30
2018-07-09T13:15:01.338Z,26.40
2018-07-09T13:17:29.731Z,26.40
2018-07-09T13:19:58.081Z,26.50
2018-07-09T13:22:26.370Z,26.50
2018-07-09T13:24:54.670Z,26.50
2018-07-09T13:27:23.042Z,26.60
2018-07-09T13:29:51.342Z,26.60
2018-07-09T13:32:19.646Z,26.50
2018-07-09T13:34:47.974Z,26.50
2018-07-09T13:37:16.241Z,26.50
2018-07-09T13:39:44.622Z,26.40
2018-07-09T13:42:12.906Z,26.50
2018-07-09T13:44:41.202Z,26.50
2018-07-09T13:47:09.490Z,26.60
2018-07-09T13:49:37.946Z,26.60
2018-07-09T13:52:06.204Z,26.60
2018-07-09T13:54:34.634Z,26.60
2018-07-09T13:57:03.186Z,26.70
2018-07-09T13:59:31.476Z,26.70
2018-07-09T14:01:59.790Z,26.70
2018-07-09T14:04:28.079Z,26.80
2018-07-09T14:06:56.580Z,26.80
2018-07-09T14:09:24.859Z,26.80
2018-07-09T14:11:53.355Z,26.80
2018-07-09T14:14:21.623Z,26.90
2018-07-09T14:16:49.938Z,26.90
2018-07-09T14:19:29.662Z,26.90
2018-07-09T14:21:57.983Z,26.80
2018-07-09T14:24:26.254Z,26.80
2018-07-09T14:26:54.666Z,26.90
2018-07-09T14:29:22.970Z,26.80
2018-07-09T14:31:51.239Z,26.90
2018-07-09T14:34:19.514Z,27.00
2018-07-09T14:36:47.824Z,27.00
2018-07-09T14:39:16.099Z,27.10
2018-07-09T14:41:44.354Z,27.10
2018-07-09T14:44:12.657Z,27.10
2018-07-09T14:46:40.962Z,27.10
2018-07-09T14:49:09.269Z,27.10
2018-07-09T14:51:37.574Z,27.10
2018-07-09T14:54:05.847Z,27.10
2018-07-09T14:56:34.199Z,27.20
2018-07-09T14:59:02.510Z,27.20
2018-07-09T15:01:30.860Z,27.20
2018-07-09T15:03:59.142Z,27.20
2018-07-09T15:06:27.418Z,27.20
2018-07-09T15:08:55.697Z,27.20
2018-07-09T15:11:24.200Z,27.20
2018-07-09T15:13:52.494Z,27.20
2018-07-09T15:16:20.751Z,27.20
2018-07-09T15:18:49.095Z,27.10
2018-07-09T15:21:17.443Z,27.10
2018-07-09T15:23:45.697Z,27.10
2018-07-09T15:26:13.961Z,27.10
2018-07-09T15:28:42.238Z,27.10
2018-07-09T15:31:10.496Z,27.10
2018-07-09T15:33:38.819Z,27.10
2018-07-09T15:36:08.674Z,27.10
2018-07-09T15:38:38.296Z,27.20
2018-07-09T15:41:07.724Z,27.10
2018-07-09T15:43:47.282Z,27.10
2018-07-09T15:46:15.561Z,27.00
2018-07-09T15:48:43.822Z,27.10
2018-07-09T15:51:12.685Z,27.10
2018-07-09T15:53:40.945Z,27.10
2018-07-09T15:56:09.261Z,27.10
2018-07-09T15:58:37.634Z,27.00
2018-07-09T16:01:05.934Z,27.00
2018-07-09T16:03:34.223Z,27.00
2018-07-09T16:06:02.491Z,27.00
2018-07-09T16:08:30.813Z,27.00
2018-07-09T16:10:59.080Z,27.00
2018-07-09T16:13:27.375Z,27.10
2018-07-09T16:18:23.763Z,27.00
2018-07-09T16:20:52.036Z,27.00
2018-07-09T16:23:20.598Z,27.00
2018-07-09T16:25:49.217Z,27.10
2018-07-09T16:28:17.601Z,27.00
2018-07-09T16:30:45.910Z,27.00
2018-07-09T16:33:14.194Z,27.00
2018-07-09T16:35:42.719Z,27.00
2018-07-09T16:38:11.082Z,27.00
2018-07-09T16:40:39.562Z,27.00
2018-07-09T16:43:07.912Z,27.10
2018-07-09T16:45:36.232Z,27.10
2018-07-09T16:48:04.518Z,27.20
2018-07-09T16:50:32.820Z,27.20
2018-07-09T16:53:01.303Z,27.20
2018-07-09T16:55:31.121Z,27.20
2018-07-09T16:57:59.434Z,27.20
2018-07-09T17:00:27.742Z,27.20
2018-07-09T17:02:56.060Z,27.20
2018-07-09T17:05:24.390Z,27.20
2018-07-09T17:07:52.660Z,27.20
2018-07-09T17:10:20.952Z,27.20
2018-07-09T17:12:49.218Z,27.20
2018-07-09T17:15:17.704Z,27.20
2018-07-09T17:17:45.975Z,27.30
2018-07-09T17:20:14.258Z,27.30
2018-07-09T17:22:42.525Z,27.30
2018-07-09T17:27:38.786Z,27.40
2018-07-09T17:30:07.061Z,27.40
2018-07-09T17:32:35.399Z,27.50
2018-07-09T17:35:03.662Z,27.50
2018-07-09T17:37:32.155Z,27.40
2018-07-09T17:40:00.584Z,27.30
2018-07-09T17:42:28.913Z,27.30
2018-07-09T17:44:57.271Z,27.30
2018-07-09T17:47:25.654Z,27.30
2018-07-09T17:49:54.097Z,27.20
2018-07-09T17:52:22.566Z,27.10
2018-07-09T17:54:50.992Z,27.10
2018-07-09T17:57:19.541Z,27.00
2018-07-09T17:59:47.810Z,27.00
2018-07-09T18:02:16.177Z,26.90
2018-07-09T18:04:44.558Z,26.90
2018-07-09T18:07:13.010Z,26.80
2018-07-09T18:09:41.319Z,26.80
2018-07-09T18:12:09.927Z,26.70
2018-07-09T18:14:38.523Z,26.70
2018-07-09T18:17:06.892Z,26.60
2018-07-09T18:19:35.321Z,26.60
2018-07-09T18:22:03.628Z,26.50
2018-07-09T18:24:31.976Z,26.50
2018-07-09T18:27:00.331Z,26.50
2018-07-09T18:29:28.565Z,26.50
2018-07-09T18:31:56.918Z,26.40
2018-07-09T18:34:25.354Z,26.30
2018-07-09T18:36:54.062Z,26.20
2018-07-09T18:39:23.496Z,26.20
2018-07-09T18:41:51.982Z,26.20
2018-07-09T18:44:20.422Z,26.20
2018-07-09T18:46:48.719Z,26.10
2018-07-09T18:49:17.050Z,26.00
2018-07-09T18:51:45.322Z,26.00
2018-07-09T18:54:13.638Z,26.00
2018-07-09T18:56:41.948Z,26.00
2018-07-09T18:59:10.230Z,26.00
2018-07-09T19:01:38.602Z,25.90
2018-07-09T19:04:06.910Z,25.90
2018-07-09T19:07:08.450Z,25.90
2018-07-09T19:09:37.231Z,25.90
2018-07-09T19:12:06.749Z,25.90
2018-07-09T19:14:38.804Z,25.90
2018-07-09T19:18:23.543Z,25.80
2018-07-09T19:21:31.466Z,25.80
2018-07-09T19:23:59.131Z,25.70
2018-07-09T19:26:26.329Z,25.70
2018-07-09T19:28:53.584Z,25.70
2018-07-09T19:31:20.802Z,25.70
2018-07-09T19:33:48.038Z,25.70
2018-07-09T19:36:15.243Z,25.60
2018-07-09T19:38:42.480Z,25.60
2018-07-09T19:41:09.894Z,25.60
2018-07-09T19:43:37.457Z,25.50
2018-07-09T19:46:05.340Z,25.50
2018-07-09T19:48:32.661Z,25.50
2018-07-09T19:51:00.441Z,25.50
2018-07-09T19:53:27.673Z,25.50
2018-07-09T19:55:54.943Z,25.40
2018-07-09T19:58:22.150Z,25.40
2018-07-09T20:00:49.410Z,25.30
2018-07-09T20:03:17.089Z,25.30
2018-07-09T20:05:44.365Z,25.30
2018-07-09T20:08:11.612Z,25.30
2018-07-09T20:10:44.290Z,25.20
2018-07-09T20:13:16.855Z,25.10
2018-07-09T20:15:49.448Z,25.10
2018-07-09T20:18:16.690Z,25.10
2018-07-09T20:20:44.000Z,25.00
2018-07-09T20:23:11.192Z,25.00
2018-07-09T20:25:38.518Z,24.90
2018-07-09T20:28:05.787Z,24.90
2018-07-09T20:30:33.021Z,24.80
2018-07-09T20:33:00.406Z,24.80
2018-07-09T20:35:27.842Z,24.80
2018-07-09T20:37:55.100Z,24.80
2018-07-09T20:40:22.342Z,24.70
2018-07-09T20:42:49.550Z,24.70
2018-07-09T20:45:16.782Z,24.70
2018-07-09T20:47:44.014Z,24.60
2018-07-09T20:50:11.278Z,24.60
2018-07-09T20:52:38.513Z,24.70
2018-07-09T20:55:05.982Z,24.60
2018-07-09T20:57:33.317Z,24.60
2018-07-09T21:00:00.726Z,24.60
2018-07-09T21:02:28.024Z,24.60
2018-07-09T21:04:55.350Z,24.60
2018-07-09T21:07:22.638Z,24.60
2018-07-09T21:09:49.970Z,24.50
2018-07-09T21:12:17.465Z,24.50
2018-07-09T21:14:44.690Z,24.50
2018-07-09T21:17:11.947Z,24.40
2018-07-09T21:19:39.160Z,24.40
2018-07-09T21:22:06.472Z,24.40
2018-07-09T21:24:33.611Z,24.40
2018-07-09T21:27:00.866Z,24.30
2018-07-09T21:29:28.149Z,24.30
2018-07-09T21:31:55.355Z,24.20
2018-07-09T21:34:22.672Z,24.20
2018-07-09T21:39:17.595Z,24.20
2018-07-09T21:41:44.905Z,24.20
2018-07-09T21:44:12.532Z,24.10
2018-07-09T21:46:39.770Z,24.10
2018-07-09T21:49:07.019Z,24.10
2018-07-09T21:51:34.266Z,24.00
2018-07-09T21:54:02.258Z,24.00
2018-07-09T21:56:29.544Z,24.00
2018-07-09T21:58:56.907Z,24.00
2018-07-09T22:01:24.118Z,23.90
2018-07-09T22:03:51.355Z,23.90
2018-07-09T22:06:18.565Z,23.90
2018-07-09T22:08:45.815Z,23.80
2018-07-09T22:11:13.030Z,23.80
2018-07-09T22:13:40.277Z,23.80
2018-07-09T22:16:07.501Z,23.80
2018-07-09T22:18:34.748Z,23.80
2018-07-09T22:21:01.996Z,23.70
2018-07-09T22:23:29.245Z,23.70
2018-07-09T22:25:56.463Z,23.70
2018-07-09T22:28:23.696Z,23.70
2018-07-09T22:30:51.994Z,23.60
2018-07-09T22:33:20.276Z,23.60
2018-07-09T22:35:48.514Z,23.50
2018-07-09T22:38:16.822Z,23.50
2018-07-09T22:40:45.146Z,23.50
2018-07-09T22:43:24.594Z,23.50
2018-07-09T22:45:52.878Z,23.50
2018-07-09T22:48:21.140Z,23.40
2018-07-09T22:50:49.450Z,23.40
2018-07-09T22:53:17.694Z,23.30
2018-07-09T22:55:57.390Z,23.30
2018-07-09T22:58:25.673Z,23.30
2018-07-09T23:00:53.991Z,23.30
2018-07-09T23:03:22.254Z,23.20
2018-07-09T23:05:50.571Z,23.10
2018-07-09T23:08:18.865Z,23.10
2018-07-09T23:13:18.679Z,23.10
2018-07-09T23:15:58.186Z,23.10
2018-07-09T23:18:37.815Z,23.10
2018-07-09T23:21:17.451Z,23.10
2018-07-09T23:23:44.686Z,23.00
2018-07-09T23:26:11.905Z,23.00
2018-07-09T23:28:39.114Z,23.00
2018-07-09T23:31:06.352Z,23.00
2018-07-09T23:33:33.598Z,23.00
2018-07-09T23:36:00.829Z,23.00
2018-07-09T23:38:28.054Z,23.00
2018-07-09T23:40:55.286Z,22.90
2018-07-09T23:43:22.536Z,22.90
2018-07-09T23:45:50.334Z,22.90
2018-07-09T23:48:17.567Z,22.90
2018-07-09T23:50:44.881Z,22.80
2018-07-09T23:53:12.113Z,22.80
2018-07-09T23:55:40.374Z,22.80
2018-07-09T23:59:22.745Z,22.80
